sensor_id;sensor_type;location;lat;lon;timestamp;P1;durP1;ratioP1;P2;durP2;ratioP2
58260;SDS011;44058;52.898;6.502;2023-02-04T00:01:56;27.88;;;4.85;;
58260;SDS011;44058;52.898;6.502;2023-02-04T00:04:22;29.63;;;6.10;;
58260;SDS011;44058;52.898;6.502;2023-02-04T00:06:48;30.10;;;5.47;;
58260;SDS011;44058;52.898;6.502;2023-02-04T00:09:14;35.25;;;5.25;;
58260;SDS011;44058;52.898;6.502;2023-02-04T00:11:41;30.60;;;5.03;;
58260;SDS011;44058;52.898;6.502;2023-02-04T00:14:17;33.70;;;5.53;;
58260;SDS011;44058;52.898;6.502;2023-02-04T00:16:44;27.08;;;5.15;;
58260;SDS011;44058;52.898;6.502;2023-02-04T00:19:17;29.98;;;5.80;;
58260;SDS011;44058;52.898;6.502;2023-02-04T00:21:44;22.25;;;4.50;;
58260;SDS011;44058;52.898;6.502;2023-02-04T00:24:10;30.63;;;5.88;;
58260;SDS011;44058;52.898;6.502;2023-02-04T00:26:40;27.55;;;5.13;;
58260;SDS011;44058;52.898;6.502;2023-02-04T00:29:06;29.58;;;5.25;;
58260;SDS011;44058;52.898;6.502;2023-02-04T00:31:32;33.13;;;5.38;;
58260;SDS011;44058;52.898;6.502;2023-02-04T00:33:59;34.38;;;5.85;;
58260;SDS011;44058;52.898;6.502;2023-02-04T00:36:25;30.08;;;5.45;;
58260;SDS011;44058;52.898;6.502;2023-02-04T00:38:51;28.50;;;5.13;;
58260;SDS011;44058;52.898;6.502;2023-02-04T00:41:18;35.10;;;5.55;;
58260;SDS011;44058;52.898;6.502;2023-02-04T00:43:44;31.63;;;5.13;;
58260;SDS011;44058;52.898;6.502;2023-02-04T00:46:10;33.30;;;5.57;;
58260;SDS011;44058;52.898;6.502;2023-02-04T00:48:36;30.77;;;4.47;;
58260;SDS011;44058;52.898;6.502;2023-02-04T00:51:03;32.83;;;5.05;;
58260;SDS011;44058;52.898;6.502;2023-02-04T00:53:30;34.30;;;5.20;;
58260;SDS011;44058;52.898;6.502;2023-02-04T00:55:56;30.90;;;4.78;;
58260;SDS011;44058;52.898;6.502;2023-02-04T00:58:22;29.33;;;5.03;;
58260;SDS011;44058;52.898;6.502;2023-02-04T01:00:49;34.15;;;4.65;;
58260;SDS011;44058;52.898;6.502;2023-02-04T01:03:16;33.20;;;6.00;;
58260;SDS011;44058;52.898;6.502;2023-02-04T01:05:42;35.50;;;5.22;;
58260;SDS011;44058;52.898;6.502;2023-02-04T01:08:08;35.22;;;5.68;;
58260;SDS011;44058;52.898;6.502;2023-02-04T01:10:34;30.67;;;5.50;;
58260;SDS011;44058;52.898;6.502;2023-02-04T01:13:07;29.30;;;4.70;;
58260;SDS011;44058;52.898;6.502;2023-02-04T01:15:34;32.67;;;4.90;;
58260;SDS011;44058;52.898;6.502;2023-02-04T01:18:00;36.42;;;6.03;;
58260;SDS011;44058;52.898;6.502;2023-02-04T01:20:27;39.42;;;5.53;;
58260;SDS011;44058;52.898;6.502;2023-02-04T01:22:53;28.65;;;5.15;;
58260;SDS011;44058;52.898;6.502;2023-02-04T01:25:19;31.83;;;5.50;;
58260;SDS011;44058;52.898;6.502;2023-02-04T01:27:45;31.00;;;4.32;;
58260;SDS011;44058;52.898;6.502;2023-02-04T01:30:13;30.48;;;5.20;;
58260;SDS011;44058;52.898;6.502;2023-02-04T01:32:39;30.00;;;5.63;;
58260;SDS011;44058;52.898;6.502;2023-02-04T01:35:06;32.63;;;5.25;;
58260;SDS011;44058;52.898;6.502;2023-02-04T01:37:32;34.38;;;4.80;;
58260;SDS011;44058;52.898;6.502;2023-02-04T01:39:58;36.05;;;4.82;;
58260;SDS011;44058;52.898;6.502;2023-02-04T01:42:26;34.45;;;6.18;;
58260;SDS011;44058;52.898;6.502;2023-02-04T01:44:52;31.77;;;4.60;;
58260;SDS011;44058;52.898;6.502;2023-02-04T01:47:19;37.38;;;5.55;;
58260;SDS011;44058;52.898;6.502;2023-02-04T01:49:46;29.67;;;5.03;;
58260;SDS011;44058;52.898;6.502;2023-02-04T01:52:15;31.90;;;5.60;;
58260;SDS011;44058;52.898;6.502;2023-02-04T01:54:42;29.95;;;5.43;;
58260;SDS011;44058;52.898;6.502;2023-02-04T01:57:08;34.17;;;5.65;;
58260;SDS011;44058;52.898;6.502;2023-02-04T01:59:46;29.60;;;5.47;;
58260;SDS011;44058;52.898;6.502;2023-02-04T02:02:59;32.25;;;5.45;;
58260;SDS011;44058;52.898;6.502;2023-02-04T02:05:21;36.00;;;5.70;;
58260;SDS011;44058;52.898;6.502;2023-02-04T02:07:48;22.33;;;4.67;;
58260;SDS011;44058;52.898;6.502;2023-02-04T02:10:14;32.05;;;4.57;;
58260;SDS011;44058;52.898;6.502;2023-02-04T02:12:40;19.55;;;4.25;;
58260;SDS011;44058;52.898;6.502;2023-02-04T02:15:07;26.95;;;4.82;;
58260;SDS011;44058;52.898;6.502;2023-02-04T02:17:37;29.05;;;4.32;;
58260;SDS011;44058;52.898;6.502;2023-02-04T02:20:08;33.30;;;5.28;;
58260;SDS011;44058;52.898;6.502;2023-02-04T02:25:11;31.08;;;5.00;;
58260;SDS011;44058;52.898;6.502;2023-02-04T02:27:37;34.00;;;5.93;;
58260;SDS011;44058;52.898;6.502;2023-02-04T02:30:04;28.77;;;4.45;;
58260;SDS011;44058;52.898;6.502;2023-02-04T02:32:31;31.90;;;5.25;;
58260;SDS011;44058;52.898;6.502;2023-02-04T02:34:57;40.13;;;5.97;;
58260;SDS011;44058;52.898;6.502;2023-02-04T02:37:23;38.13;;;4.97;;
58260;SDS011;44058;52.898;6.502;2023-02-04T02:39:50;31.95;;;5.32;;
58260;SDS011;44058;52.898;6.502;2023-02-04T02:42:16;27.58;;;5.28;;
58260;SDS011;44058;52.898;6.502;2023-02-04T02:44:44;30.35;;;5.15;;
58260;SDS011;44058;52.898;6.502;2023-02-04T02:47:12;34.25;;;5.20;;
58260;SDS011;44058;52.898;6.502;2023-02-04T02:49:38;28.60;;;5.35;;
58260;SDS011;44058;52.898;6.502;2023-02-04T02:52:16;28.92;;;5.47;;
58260;SDS011;44058;52.898;6.502;2023-02-04T02:54:42;29.80;;;4.95;;
58260;SDS011;44058;52.898;6.502;2023-02-04T02:57:15;29.13;;;5.03;;
58260;SDS011;44058;52.898;6.502;2023-02-04T02:59:42;30.98;;;5.43;;
58260;SDS011;44058;52.898;6.502;2023-02-04T03:02:09;29.85;;;4.75;;
58260;SDS011;44058;52.898;6.502;2023-02-04T03:04:38;26.40;;;4.75;;
58260;SDS011;44058;52.898;6.502;2023-02-04T03:07:06;31.57;;;5.80;;
58260;SDS011;44058;52.898;6.502;2023-02-04T03:09:32;26.75;;;4.97;;
58260;SDS011;44058;52.898;6.502;2023-02-04T03:12:00;32.38;;;5.68;;
58260;SDS011;44058;52.898;6.502;2023-02-04T03:14:26;30.00;;;4.80;;
58260;SDS011;44058;52.898;6.502;2023-02-04T03:16:53;28.25;;;4.45;;
58260;SDS011;44058;52.898;6.502;2023-02-04T03:19:21;35.72;;;6.15;;
58260;SDS011;44058;52.898;6.502;2023-02-04T03:21:48;33.85;;;5.47;;
58260;SDS011;44058;52.898;6.502;2023-02-04T03:24:14;26.27;;;5.35;;
58260;SDS011;44058;52.898;6.502;2023-02-04T03:26:40;28.98;;;4.93;;
58260;SDS011;44058;52.898;6.502;2023-02-04T03:29:07;27.33;;;5.22;;
58260;SDS011;44058;52.898;6.502;2023-02-04T03:31:34;36.58;;;6.07;;
58260;SDS011;44058;52.898;6.502;2023-02-04T03:34:02;30.98;;;5.45;;
58260;SDS011;44058;52.898;6.502;2023-02-04T03:36:28;21.15;;;3.72;;
58260;SDS011;44058;52.898;6.502;2023-02-04T03:38:55;31.23;;;5.22;;
58260;SDS011;44058;52.898;6.502;2023-02-04T03:41:21;36.30;;;5.45;;
58260;SDS011;44058;52.898;6.502;2023-02-04T03:43:47;28.65;;;4.88;;
58260;SDS011;44058;52.898;6.502;2023-02-04T03:46:13;30.83;;;4.82;;
58260;SDS011;44058;52.898;6.502;2023-02-04T03:48:39;32.08;;;5.10;;
58260;SDS011;44058;52.898;6.502;2023-02-04T03:51:06;30.13;;;4.85;;
58260;SDS011;44058;52.898;6.502;2023-02-04T03:53:32;29.58;;;5.07;;
58260;SDS011;44058;52.898;6.502;2023-02-04T03:55:58;40.03;;;5.25;;
58260;SDS011;44058;52.898;6.502;2023-02-04T03:58:24;33.38;;;6.30;;
58260;SDS011;44058;52.898;6.502;2023-02-04T04:00:50;29.17;;;5.32;;
58260;SDS011;44058;52.898;6.502;2023-02-04T04:03:17;31.60;;;4.55;;
58260;SDS011;44058;52.898;6.502;2023-02-04T04:05:44;27.67;;;4.95;;
58260;SDS011;44058;52.898;6.502;2023-02-04T04:08:10;27.58;;;4.50;;
58260;SDS011;44058;52.898;6.502;2023-02-04T04:10:36;37.80;;;4.88;;
58260;SDS011;44058;52.898;6.502;2023-02-04T04:13:03;25.92;;;4.72;;
58260;SDS011;44058;52.898;6.502;2023-02-04T04:15:30;28.05;;;4.78;;
58260;SDS011;44058;52.898;6.502;2023-02-04T04:17:56;25.50;;;4.55;;
58260;SDS011;44058;52.898;6.502;2023-02-04T04:20:22;32.38;;;4.65;;
58260;SDS011;44058;52.898;6.502;2023-02-04T04:22:50;35.10;;;4.97;;
58260;SDS011;44058;52.898;6.502;2023-02-04T04:25:16;39.38;;;4.90;;
58260;SDS011;44058;52.898;6.502;2023-02-04T04:27:43;28.77;;;4.38;;
58260;SDS011;44058;52.898;6.502;2023-02-04T04:30:09;35.78;;;5.18;;
58260;SDS011;44058;52.898;6.502;2023-02-04T04:32:36;25.95;;;5.32;;
58260;SDS011;44058;52.898;6.502;2023-02-04T04:35:02;23.83;;;4.53;;
58260;SDS011;44058;52.898;6.502;2023-02-04T04:37:29;29.20;;;5.45;;
58260;SDS011;44058;52.898;6.502;2023-02-04T04:39:55;31.05;;;4.95;;
58260;SDS011;44058;52.898;6.502;2023-02-04T04:42:21;28.45;;;4.45;;
58260;SDS011;44058;52.898;6.502;2023-02-04T04:44:52;28.05;;;4.43;;
58260;SDS011;44058;52.898;6.502;2023-02-04T04:47:18;23.00;;;4.05;;
58260;SDS011;44058;52.898;6.502;2023-02-04T04:49:45;27.17;;;5.60;;
58260;SDS011;44058;52.898;6.502;2023-02-04T04:52:11;34.33;;;5.78;;
58260;SDS011;44058;52.898;6.502;2023-02-04T04:54:37;33.28;;;5.13;;
58260;SDS011;44058;52.898;6.502;2023-02-04T04:57:03;28.15;;;5.97;;
58260;SDS011;44058;52.898;6.502;2023-02-04T04:59:29;28.38;;;5.18;;
58260;SDS011;44058;52.898;6.502;2023-02-04T05:01:55;24.88;;;4.53;;
58260;SDS011;44058;52.898;6.502;2023-02-04T05:04:21;27.45;;;5.20;;
58260;SDS011;44058;52.898;6.502;2023-02-04T05:06:48;24.38;;;4.40;;
58260;SDS011;44058;52.898;6.502;2023-02-04T05:09:14;37.10;;;4.88;;
58260;SDS011;44058;52.898;6.502;2023-02-04T05:11:41;26.33;;;4.15;;
58260;SDS011;44058;52.898;6.502;2023-02-04T05:14:08;30.05;;;5.22;;
58260;SDS011;44058;52.898;6.502;2023-02-04T05:16:34;28.95;;;4.80;;
58260;SDS011;44058;52.898;6.502;2023-02-04T05:19:00;30.00;;;4.95;;
58260;SDS011;44058;52.898;6.502;2023-02-04T05:21:26;28.35;;;4.25;;
58260;SDS011;44058;52.898;6.502;2023-02-04T05:23:53;32.33;;;4.78;;
58260;SDS011;44058;52.898;6.502;2023-02-04T05:26:25;28.08;;;5.13;;
58260;SDS011;44058;52.898;6.502;2023-02-04T05:28:52;27.30;;;4.50;;
58260;SDS011;44058;52.898;6.502;2023-02-04T05:31:18;33.00;;;5.05;;
58260;SDS011;44058;52.898;6.502;2023-02-04T05:33:44;23.05;;;4.40;;
58260;SDS011;44058;52.898;6.502;2023-02-04T05:36:10;25.90;;;4.68;;
58260;SDS011;44058;52.898;6.502;2023-02-04T05:38:36;26.83;;;4.80;;
58260;SDS011;44058;52.898;6.502;2023-02-04T05:41:02;23.45;;;4.05;;
58260;SDS011;44058;52.898;6.502;2023-02-04T05:43:29;29.15;;;4.57;;
58260;SDS011;44058;52.898;6.502;2023-02-04T05:45:55;21.42;;;4.22;;
58260;SDS011;44058;52.898;6.502;2023-02-04T05:48:21;27.25;;;5.28;;
58260;SDS011;44058;52.898;6.502;2023-02-04T05:50:48;30.40;;;5.20;;
58260;SDS011;44058;52.898;6.502;2023-02-04T05:53:14;21.52;;;4.22;;
58260;SDS011;44058;52.898;6.502;2023-02-04T05:55:41;16.13;;;3.85;;
58260;SDS011;44058;52.898;6.502;2023-02-04T05:58:07;27.63;;;5.45;;
58260;SDS011;44058;52.898;6.502;2023-02-04T06:00:33;29.65;;;4.75;;
58260;SDS011;44058;52.898;6.502;2023-02-04T06:02:59;23.92;;;5.38;;
58260;SDS011;44058;52.898;6.502;2023-02-04T06:05:26;20.38;;;3.63;;
58260;SDS011;44058;52.898;6.502;2023-02-04T06:07:53;25.98;;;4.65;;
58260;SDS011;44058;52.898;6.502;2023-02-04T06:10:19;17.70;;;4.20;;
58260;SDS011;44058;52.898;6.502;2023-02-04T06:12:45;21.20;;;4.40;;
58260;SDS011;44058;52.898;6.502;2023-02-04T06:15:12;26.15;;;4.90;;
58260;SDS011;44058;52.898;6.502;2023-02-04T06:17:38;22.80;;;4.50;;
58260;SDS011;44058;52.898;6.502;2023-02-04T06:20:05;27.23;;;4.90;;
58260;SDS011;44058;52.898;6.502;2023-02-04T06:22:31;26.13;;;4.90;;
58260;SDS011;44058;52.898;6.502;2023-02-04T06:24:57;18.20;;;3.50;;
58260;SDS011;44058;52.898;6.502;2023-02-04T06:27:24;22.95;;;3.55;;
58260;SDS011;44058;52.898;6.502;2023-02-04T06:29:51;22.17;;;4.00;;
58260;SDS011;44058;52.898;6.502;2023-02-04T06:32:17;14.98;;;3.35;;
58260;SDS011;44058;52.898;6.502;2023-02-04T06:34:43;19.25;;;4.13;;
58260;SDS011;44058;52.898;6.502;2023-02-04T06:37:16;16.45;;;3.25;;
58260;SDS011;44058;52.898;6.502;2023-02-04T06:39:42;19.08;;;4.07;;
58260;SDS011;44058;52.898;6.502;2023-02-04T06:42:09;20.45;;;3.88;;
58260;SDS011;44058;52.898;6.502;2023-02-04T06:44:45;24.25;;;4.35;;
58260;SDS011;44058;52.898;6.502;2023-02-04T06:47:11;24.67;;;4.30;;
58260;SDS011;44058;52.898;6.502;2023-02-04T06:49:37;24.88;;;5.30;;
58260;SDS011;44058;52.898;6.502;2023-02-04T06:52:03;25.10;;;3.97;;
58260;SDS011;44058;52.898;6.502;2023-02-04T06:54:33;23.65;;;4.25;;
58260;SDS011;44058;52.898;6.502;2023-02-04T06:56:59;25.65;;;4.63;;
58260;SDS011;44058;52.898;6.502;2023-02-04T06:59:31;24.75;;;4.93;;
58260;SDS011;44058;52.898;6.502;2023-02-04T07:01:58;27.98;;;4.13;;
58260;SDS011;44058;52.898;6.502;2023-02-04T07:04:24;26.55;;;4.03;;
58260;SDS011;44058;52.898;6.502;2023-02-04T07:06:54;23.77;;;4.10;;
58260;SDS011;44058;52.898;6.502;2023-02-04T07:09:35;15.45;;;3.28;;
58260;SDS011;44058;52.898;6.502;2023-02-04T07:12:02;20.48;;;3.90;;
58260;SDS011;44058;52.898;6.502;2023-02-04T07:14:28;20.63;;;3.55;;
58260;SDS011;44058;52.898;6.502;2023-02-04T07:16:54;20.63;;;4.05;;
58260;SDS011;44058;52.898;6.502;2023-02-04T07:19:23;23.50;;;4.20;;
58260;SDS011;44058;52.898;6.502;2023-02-04T07:21:49;12.80;;;3.33;;
58260;SDS011;44058;52.898;6.502;2023-02-04T07:24:18;20.10;;;3.63;;
58260;SDS011;44058;52.898;6.502;2023-02-04T07:26:45;22.02;;;4.00;;
58260;SDS011;44058;52.898;6.502;2023-02-04T07:29:11;17.63;;;3.22;;
58260;SDS011;44058;52.898;6.502;2023-02-04T07:31:37;18.65;;;3.10;;
58260;SDS011;44058;52.898;6.502;2023-02-04T07:34:05;18.20;;;3.22;;
58260;SDS011;44058;52.898;6.502;2023-02-04T07:36:31;18.45;;;3.40;;
58260;SDS011;44058;52.898;6.502;2023-02-04T07:38:58;16.42;;;3.40;;
58260;SDS011;44058;52.898;6.502;2023-02-04T07:41:24;16.33;;;3.63;;
58260;SDS011;44058;52.898;6.502;2023-02-04T07:43:50;22.83;;;4.00;;
58260;SDS011;44058;52.898;6.502;2023-02-04T07:46:16;19.08;;;3.28;;
58260;SDS011;44058;52.898;6.502;2023-02-04T07:48:43;16.58;;;2.88;;
58260;SDS011;44058;52.898;6.502;2023-02-04T07:51:09;14.23;;;2.63;;
58260;SDS011;44058;52.898;6.502;2023-02-04T07:53:35;24.08;;;3.97;;
58260;SDS011;44058;52.898;6.502;2023-02-04T07:56:01;14.25;;;2.90;;
58260;SDS011;44058;52.898;6.502;2023-02-04T07:58:28;13.90;;;3.17;;
58260;SDS011;44058;52.898;6.502;2023-02-04T08:00:54;14.48;;;3.17;;
58260;SDS011;44058;52.898;6.502;2023-02-04T08:03:24;14.90;;;2.85;;
58260;SDS011;44058;52.898;6.502;2023-02-04T08:05:50;15.60;;;3.25;;
58260;SDS011;44058;52.898;6.502;2023-02-04T08:08:16;12.23;;;2.92;;
58260;SDS011;44058;52.898;6.502;2023-02-04T08:10:43;16.17;;;3.05;;
58260;SDS011;44058;52.898;6.502;2023-02-04T08:13:10;13.48;;;2.47;;
58260;SDS011;44058;52.898;6.502;2023-02-04T08:15:38;13.25;;;3.42;;
58260;SDS011;44058;52.898;6.502;2023-02-04T08:18:04;11.73;;;2.47;;
58260;SDS011;44058;52.898;6.502;2023-02-04T08:20:30;10.48;;;1.90;;
58260;SDS011;44058;52.898;6.502;2023-02-04T08:22:58;17.58;;;2.75;;
58260;SDS011;44058;52.898;6.502;2023-02-04T08:25:24;13.77;;;2.38;;
58260;SDS011;44058;52.898;6.502;2023-02-04T08:27:50;13.98;;;2.40;;
58260;SDS011;44058;52.898;6.502;2023-02-04T08:30:16;12.07;;;2.60;;
58260;SDS011;44058;52.898;6.502;2023-02-04T08:32:44;11.98;;;2.05;;
58260;SDS011;44058;52.898;6.502;2023-02-04T08:35:10;12.75;;;1.85;;
58260;SDS011;44058;52.898;6.502;2023-02-04T08:37:36;12.45;;;2.15;;
58260;SDS011;44058;52.898;6.502;2023-02-04T08:40:03;14.38;;;2.28;;
58260;SDS011;44058;52.898;6.502;2023-02-04T08:42:29;13.05;;;2.38;;
58260;SDS011;44058;52.898;6.502;2023-02-04T08:44:55;12.35;;;2.42;;
58260;SDS011;44058;52.898;6.502;2023-02-04T08:47:22;12.30;;;2.47;;
58260;SDS011;44058;52.898;6.502;2023-02-04T08:49:48;11.80;;;2.17;;
58260;SDS011;44058;52.898;6.502;2023-02-04T08:52:14;11.30;;;1.52;;
58260;SDS011;44058;52.898;6.502;2023-02-04T08:54:40;8.98;;;2.17;;
58260;SDS011;44058;52.898;6.502;2023-02-04T08:57:06;12.75;;;2.35;;
58260;SDS011;44058;52.898;6.502;2023-02-04T08:59:33;5.90;;;1.75;;
58260;SDS011;44058;52.898;6.502;2023-02-04T09:01:59;12.38;;;2.00;;
58260;SDS011;44058;52.898;6.502;2023-02-04T09:04:27;13.82;;;2.17;;
58260;SDS011;44058;52.898;6.502;2023-02-04T09:06:53;11.73;;;2.10;;
58260;SDS011;44058;52.898;6.502;2023-02-04T09:09:19;10.70;;;1.92;;
58260;SDS011;44058;52.898;6.502;2023-02-04T09:11:47;11.60;;;2.30;;
58260;SDS011;44058;52.898;6.502;2023-02-04T09:14:13;9.35;;;1.67;;
58260;SDS011;44058;52.898;6.502;2023-02-04T09:16:39;6.65;;;1.48;;
58260;SDS011;44058;52.898;6.502;2023-02-04T09:19:05;9.77;;;2.15;;
58260;SDS011;44058;52.898;6.502;2023-02-04T09:21:35;11.90;;;1.75;;
58260;SDS011;44058;52.898;6.502;2023-02-04T09:24:01;7.95;;;1.92;;
58260;SDS011;44058;52.898;6.502;2023-02-04T09:26:27;7.15;;;1.55;;
58260;SDS011;44058;52.898;6.502;2023-02-04T09:28:53;13.63;;;2.10;;
58260;SDS011;44058;52.898;6.502;2023-02-04T09:31:19;9.25;;;1.55;;
58260;SDS011;44058;52.898;6.502;2023-02-04T09:33:46;10.68;;;2.10;;
58260;SDS011;44058;52.898;6.502;2023-02-04T09:36:12;10.35;;;2.30;;
58260;SDS011;44058;52.898;6.502;2023-02-04T09:38:38;10.38;;;2.03;;
58260;SDS011;44058;52.898;6.502;2023-02-04T09:41:07;13.52;;;1.95;;
58260;SDS011;44058;52.898;6.502;2023-02-04T09:43:38;7.70;;;1.70;;
58260;SDS011;44058;52.898;6.502;2023-02-04T09:46:04;14.93;;;2.58;;
58260;SDS011;44058;52.898;6.502;2023-02-04T09:48:32;9.50;;;2.10;;
58260;SDS011;44058;52.898;6.502;2023-02-04T09:51:06;11.18;;;1.85;;
58260;SDS011;44058;52.898;6.502;2023-02-04T09:53:32;5.97;;;1.60;;
58260;SDS011;44058;52.898;6.502;2023-02-04T09:55:59;10.32;;;2.47;;
58260;SDS011;44058;52.898;6.502;2023-02-04T09:58:28;9.77;;;1.70;;
58260;SDS011;44058;52.898;6.502;2023-02-04T10:00:57;7.15;;;1.75;;
58260;SDS011;44058;52.898;6.502;2023-02-04T10:03:24;4.75;;;1.40;;
58260;SDS011;44058;52.898;6.502;2023-02-04T10:05:52;9.98;;;2.03;;
58260;SDS011;44058;52.898;6.502;2023-02-04T10:08:18;8.55;;;2.05;;
58260;SDS011;44058;52.898;6.502;2023-02-04T10:10:45;10.25;;;2.05;;
58260;SDS011;44058;52.898;6.502;2023-02-04T10:13:18;11.23;;;2.05;;
58260;SDS011;44058;52.898;6.502;2023-02-04T10:15:46;13.57;;;2.53;;
58260;SDS011;44058;52.898;6.502;2023-02-04T10:18:18;9.38;;;1.92;;
58260;SDS011;44058;52.898;6.502;2023-02-04T10:20:48;8.98;;;1.73;;
58260;SDS011;44058;52.898;6.502;2023-02-04T10:23:15;11.52;;;2.05;;
58260;SDS011;44058;52.898;6.502;2023-02-04T10:25:44;10.57;;;1.75;;
58260;SDS011;44058;52.898;6.502;2023-02-04T10:28:10;10.80;;;2.08;;
58260;SDS011;44058;52.898;6.502;2023-02-04T10:30:41;10.68;;;1.83;;
58260;SDS011;44058;52.898;6.502;2023-02-04T10:33:23;7.88;;;1.58;;
58260;SDS011;44058;52.898;6.502;2023-02-04T10:35:50;7.70;;;1.52;;
58260;SDS011;44058;52.898;6.502;2023-02-04T10:38:17;10.95;;;2.17;;
58260;SDS011;44058;52.898;6.502;2023-02-04T10:40:47;10.05;;;2.20;;
58260;SDS011;44058;52.898;6.502;2023-02-04T10:43:24;10.77;;;2.17;;
58260;SDS011;44058;52.898;6.502;2023-02-04T10:45:54;8.52;;;2.15;;
58260;SDS011;44058;52.898;6.502;2023-02-04T10:48:21;6.35;;;1.58;;
58260;SDS011;44058;52.898;6.502;2023-02-04T10:50:52;9.32;;;1.33;;
58260;SDS011;44058;52.898;6.502;2023-02-04T10:53:20;7.45;;;1.63;;
58260;SDS011;44058;52.898;6.502;2023-02-04T10:56:12;10.20;;;1.83;;
58260;SDS011;44058;52.898;6.502;2023-02-04T10:58:40;6.50;;;1.70;;
58260;SDS011;44058;52.898;6.502;2023-02-04T11:01:12;8.40;;;1.50;;
58260;SDS011;44058;52.898;6.502;2023-02-04T11:03:40;8.23;;;1.42;;
58260;SDS011;44058;52.898;6.502;2023-02-04T11:06:14;7.30;;;1.55;;
58260;SDS011;44058;52.898;6.502;2023-02-04T11:08:42;9.70;;;1.92;;
58260;SDS011;44058;52.898;6.502;2023-02-04T11:18:47;6.70;;;1.63;;
58260;SDS011;44058;52.898;6.502;2023-02-04T11:21:20;9.55;;;2.03;;
58260;SDS011;44058;52.898;6.502;2023-02-04T11:23:47;7.43;;;1.48;;
58260;SDS011;44058;52.898;6.502;2023-02-04T11:26:14;5.57;;;1.60;;
58260;SDS011;44058;52.898;6.502;2023-02-04T11:33:39;9.32;;;1.58;;
58260;SDS011;44058;52.898;6.502;2023-02-04T11:36:08;6.50;;;1.10;;
58260;SDS011;44058;52.898;6.502;2023-02-04T11:38:36;4.18;;;1.15;;
58260;SDS011;44058;52.898;6.502;2023-02-04T11:41:02;8.60;;;1.50;;
58260;SDS011;44058;52.898;6.502;2023-02-04T11:43:32;8.30;;;1.83;;
58260;SDS011;44058;52.898;6.502;2023-02-04T11:46:02;8.02;;;1.90;;
58260;SDS011;44058;52.898;6.502;2023-02-04T11:48:29;6.13;;;1.58;;
58260;SDS011;44058;52.898;6.502;2023-02-04T11:50:55;7.72;;;1.63;;
58260;SDS011;44058;52.898;6.502;2023-02-04T11:53:31;6.57;;;1.80;;
58260;SDS011;44058;52.898;6.502;2023-02-04T11:55:58;4.35;;;1.42;;
58260;SDS011;44058;52.898;6.502;2023-02-04T11:58:25;5.88;;;1.60;;
58260;SDS011;44058;52.898;6.502;2023-02-04T12:00:56;5.22;;;1.73;;
58260;SDS011;44058;52.898;6.502;2023-02-04T12:03:24;5.55;;;1.40;;
58260;SDS011;44058;52.898;6.502;2023-02-04T12:05:51;8.03;;;2.03;;
58260;SDS011;44058;52.898;6.502;2023-02-04T12:13:18;5.32;;;1.98;;
58260;SDS011;44058;52.898;6.502;2023-02-04T12:15:53;5.90;;;1.80;;
58260;SDS011;44058;52.898;6.502;2023-02-04T12:18:20;8.75;;;1.92;;
58260;SDS011;44058;52.898;6.502;2023-02-04T12:20:46;5.93;;;1.60;;
58260;SDS011;44058;52.898;6.502;2023-02-04T12:23:12;8.52;;;1.75;;
58260;SDS011;44058;52.898;6.502;2023-02-04T12:25:38;5.32;;;1.42;;
58260;SDS011;44058;52.898;6.502;2023-02-04T12:28:05;6.90;;;1.63;;
58260;SDS011;44058;52.898;6.502;2023-02-04T12:30:35;5.38;;;1.73;;
58260;SDS011;44058;52.898;6.502;2023-02-04T12:33:01;6.43;;;1.50;;
58260;SDS011;44058;52.898;6.502;2023-02-04T12:35:27;9.05;;;1.30;;
58260;SDS011;44058;52.898;6.502;2023-02-04T12:37:53;5.70;;;1.50;;
58260;SDS011;44058;52.898;6.502;2023-02-04T12:40:20;4.82;;;1.30;;
58260;SDS011;44058;52.898;6.502;2023-02-04T12:42:46;4.05;;;1.30;;
58260;SDS011;44058;52.898;6.502;2023-02-04T12:45:13;5.35;;;1.30;;
58260;SDS011;44058;52.898;6.502;2023-02-04T12:47:39;6.55;;;1.40;;
58260;SDS011;44058;52.898;6.502;2023-02-04T12:50:06;5.50;;;1.25;;
58260;SDS011;44058;52.898;6.502;2023-02-04T12:52:34;5.18;;;1.35;;
58260;SDS011;44058;52.898;6.502;2023-02-04T12:55:01;6.63;;;1.42;;
58260;SDS011;44058;52.898;6.502;2023-02-04T12:57:30;6.25;;;1.50;;
58260;SDS011;44058;52.898;6.502;2023-02-04T12:59:57;4.40;;;1.60;;
58260;SDS011;44058;52.898;6.502;2023-02-04T13:02:24;4.32;;;1.35;;
58260;SDS011;44058;52.898;6.502;2023-02-04T13:04:51;4.85;;;1.40;;
58260;SDS011;44058;52.898;6.502;2023-02-04T13:07:17;5.05;;;1.83;;
58260;SDS011;44058;52.898;6.502;2023-02-04T13:09:43;4.57;;;1.40;;
58260;SDS011;44058;52.898;6.502;2023-02-04T13:12:10;6.97;;;1.27;;
58260;SDS011;44058;52.898;6.502;2023-02-04T13:14:38;4.28;;;1.63;;
58260;SDS011;44058;52.898;6.502;2023-02-04T13:17:09;6.97;;;1.60;;
58260;SDS011;44058;52.898;6.502;2023-02-04T13:19:35;5.82;;;1.38;;
58260;SDS011;44058;52.898;6.502;2023-02-04T13:22:02;4.93;;;1.45;;
58260;SDS011;44058;52.898;6.502;2023-02-04T13:24:29;6.88;;;1.42;;
58260;SDS011;44058;52.898;6.502;2023-02-04T13:26:55;5.53;;;1.05;;
58260;SDS011;44058;52.898;6.502;2023-02-04T13:29:22;5.85;;;1.83;;
58260;SDS011;44058;52.898;6.502;2023-02-04T13:31:48;5.95;;;1.38;;
58260;SDS011;44058;52.898;6.502;2023-02-04T13:34:16;4.50;;;1.25;;
58260;SDS011;44058;52.898;6.502;2023-02-04T13:36:42;4.80;;;1.10;;
58260;SDS011;44058;52.898;6.502;2023-02-04T13:39:09;4.38;;;1.42;;
58260;SDS011;44058;52.898;6.502;2023-02-04T13:41:35;5.70;;;1.67;;
58260;SDS011;44058;52.898;6.502;2023-02-04T13:44:02;5.85;;;1.45;;
58260;SDS011;44058;52.898;6.502;2023-02-04T13:46:29;3.65;;;1.13;;
58260;SDS011;44058;52.898;6.502;2023-02-04T13:48:55;4.72;;;1.25;;
58260;SDS011;44058;52.898;6.502;2023-02-04T13:51:21;4.88;;;1.58;;
58260;SDS011;44058;52.898;6.502;2023-02-04T13:53:47;2.47;;;1.08;;
58260;SDS011;44058;52.898;6.502;2023-02-04T13:56:13;4.78;;;1.50;;
58260;SDS011;44058;52.898;6.502;2023-02-04T13:58:39;4.25;;;1.30;;
58260;SDS011;44058;52.898;6.502;2023-02-04T14:01:11;5.40;;;1.55;;
58260;SDS011;44058;52.898;6.502;2023-02-04T14:03:37;4.25;;;1.50;;
58260;SDS011;44058;52.898;6.502;2023-02-04T14:06:05;4.07;;;1.42;;
58260;SDS011;44058;52.898;6.502;2023-02-04T14:08:32;5.43;;;1.27;;
58260;SDS011;44058;52.898;6.502;2023-02-04T14:10:59;5.13;;;1.40;;
58260;SDS011;44058;52.898;6.502;2023-02-04T14:13:25;4.18;;;1.20;;
58260;SDS011;44058;52.898;6.502;2023-02-04T14:15:57;5.72;;;1.17;;
58260;SDS011;44058;52.898;6.502;2023-02-04T14:18:24;6.65;;;1.48;;
58260;SDS011;44058;52.898;6.502;2023-02-04T14:20:51;7.32;;;1.60;;
58260;SDS011;44058;52.898;6.502;2023-02-04T14:23:17;4.45;;;1.30;;
58260;SDS011;44058;52.898;6.502;2023-02-04T14:25:43;7.80;;;1.33;;
58260;SDS011;44058;52.898;6.502;2023-02-04T14:28:15;6.30;;;1.60;;
58260;SDS011;44058;52.898;6.502;2023-02-04T14:30:41;6.07;;;1.20;;
58260;SDS011;44058;52.898;6.502;2023-02-04T14:33:07;7.32;;;1.55;;
58260;SDS011;44058;52.898;6.502;2023-02-04T14:35:34;6.28;;;1.27;;
58260;SDS011;44058;52.898;6.502;2023-02-04T14:38:02;8.02;;;1.40;;
58260;SDS011;44058;52.898;6.502;2023-02-04T14:40:28;4.55;;;1.23;;
58260;SDS011;44058;52.898;6.502;2023-02-04T14:42:54;7.85;;;1.50;;
58260;SDS011;44058;52.898;6.502;2023-02-04T14:45:22;4.70;;;1.25;;
58260;SDS011;44058;52.898;6.502;2023-02-04T14:47:49;4.70;;;1.10;;
58260;SDS011;44058;52.898;6.502;2023-02-04T14:50:16;3.53;;;1.10;;
58260;SDS011;44058;52.898;6.502;2023-02-04T14:52:43;4.80;;;1.17;;
58260;SDS011;44058;52.898;6.502;2023-02-04T14:55:12;5.15;;;1.50;;
58260;SDS011;44058;52.898;6.502;2023-02-04T14:57:39;6.25;;;1.50;;
58260;SDS011;44058;52.898;6.502;2023-02-04T15:00:06;6.57;;;1.58;;